Time;durP1;ratioP1;P1;durP2;ratioP2;P2;SDS_P1;SDS_P2;PMS_P1;PMS_P2;Temp;Humidity;BMP_temperature;BMP_pressure;BME280_temperature;BME280_humidity;BME280_pressure;Samples;Min_cycle;Max_cycle;Signal;HPM_P1;HPM_P2
2023/10/17 00:00:32;;;;;;;0.90;0.50;;;;;;;6.02;100.00;100248.40;108719;1256;58785;-52
2023/10/17 00:02:59;;;;;;;1.80;0.60;;;;;;;6.02;100.00;100250.54;108852;1256;73118;-53
2023/10/17 00:05:29;;;;;;;1.40;0.40;;;;;;;6.03;100.00;100250.88;108768;1256;66332;-51
2023/10/17 00:07:58;;;;;;;2.40;0.40;;;;;;;6.04;100.00;100248.16;108705;1254;72917;-51
2023/10/17 00:10:30;;;;;;;2.20;0.90;;;;;;;6.05;100.00;100242.96;108641;1255;59580;-51
2023/10/17 00:13:17;;;;;;;0.60;0.40;;;;;;;6.07;100.00;100248.28;108928;1255;58817;-51
2023/10/17 00:15:46;;;;;;;1.30;0.40;;;;;;;6.11;100.00;100250.36;108690;1256;73900;-53
2023/10/17 00:18:16;;;;;;;0.60;0.40;;;;;;;6.13;100.00;100251.35;108758;1256;65698;-52
2023/10/17 00:20:44;;;;;;;1.40;0.60;;;;;;;6.16;100.00;100249.33;108479;1256;71465;-52
2023/10/17 00:23:15;;;;;;;3.60;0.40;;;;;;;6.18;100.00;100255.17;104640;1256;60625;-51
2023/10/17 00:25:42;;;;;;;0.60;0.50;;;;;;;6.20;100.00;100254.42;106614;1256;60517;-51
2023/10/17 00:28:10;;;;;;;2.30;0.50;;;;;;;6.20;100.00;100261.19;104661;1256;73796;-51
2023/10/17 00:30:38;;;;;;;1.50;0.60;;;;;;;6.17;100.00;100263.91;105900;1257;66991;-50
2023/10/17 00:33:09;;;;;;;0.60;0.50;;;;;;;6.16;100.00;100263.05;104681;1260;72328;-51
2023/10/17 00:35:40;;;;;;;2.10;0.70;;;;;;;6.15;100.00;100262.36;104858;1256;61304;-50
2023/10/17 00:38:07;;;;;;;1.00;0.50;;;;;;;6.14;100.00;100265.21;104738;1256;60578;-51
2023/10/17 00:43:12;;;;;;;1.80;0.50;;;;;;;6.12;100.00;100262.08;104556;1256;68408;-50
2023/10/17 00:45:40;;;;;;;1.00;0.60;;;;;;;6.11;100.00;100259.25;104727;1257;73246;-50
2023/10/17 00:48:08;;;;;;;1.20;0.60;;;;;;;6.12;100.00;100263.16;108644;1256;60408;-52
2023/10/17 00:50:37;;;;;;;1.00;0.60;;;;;;;6.12;100.00;100265.98;106701;1256;59689;-52
2023/10/17 00:53:06;;;;;;;1.90;0.50;;;;;;;6.14;100.00;100265.05;105331;1260;74357;-51
2023/10/17 00:55:35;;;;;;;0.70;0.60;;;;;;;6.16;100.00;100270.01;104985;1256;66970;-50
2023/10/17 00:58:06;;;;;;;0.70;0.60;;;;;;;6.18;100.00;100269.25;104890;1260;71519;-49
2023/10/17 01:00:37;;;;;;;0.70;0.60;;;;;;;6.19;100.00;100276.00;104430;1259;62118;-50
2023/10/17 01:03:10;;;;;;;0.70;0.50;;;;;;;6.21;100.00;100274.52;108732;1256;58772;-50
2023/10/17 01:09:08;;;;;;;2.40;0.80;;;;;;;6.26;100.00;100279.58;104213;1262;67328;-51
2023/10/17 01:11:38;;;;;;;1.80;0.50;;;;;;;6.28;100.00;100279.90;108146;1257;71475;-49
2023/10/17 01:14:06;;;;;;;0.70;0.50;;;;;;;6.31;100.00;100281.95;104511;1256;60601;-51
2023/10/17 01:16:34;;;;;;;3.50;0.60;;;;;;;6.35;100.00;100287.40;104859;1257;60563;-50
2023/10/17 01:19:05;;;;;;;0.70;0.50;;;;;;;6.38;100.00;100290.17;105491;1258;74312;-51
2023/10/17 01:21:33;;;;;;;1.40;0.50;;;;;;;6.39;100.00;100295.48;105876;1259;67051;-49
2023/10/17 01:24:04;;;;;;;0.70;0.60;;;;;;;6.41;100.00;100298.66;105639;1256;71468;-51
2023/10/17 01:26:37;;;;;;;1.40;0.50;;;;;;;6.43;100.00;100307.54;105262;1259;60677;-50
2023/10/17 01:29:11;;;;;;;1.60;0.70;;;;;;;6.43;100.00;100310.38;105838;1255;60453;-49
2023/10/17 01:31:40;;;;;;;0.90;0.50;;;;;;;6.43;100.00;100310.56;105274;1257;72664;-50
2023/10/17 01:34:08;;;;;;;1.00;0.70;;;;;;;6.43;100.00;100313.59;105443;1256;65300;-50
2023/10/17 01:36:40;;;;;;;3.20;0.80;;;;;;;6.44;100.00;100315.54;105164;1256;72959;-50
2023/10/17 01:39:08;;;;;;;1.70;0.70;;;;;;;6.46;100.00;100314.05;105258;1256;61924;-49
2023/10/17 01:41:38;;;;;;;2.90;0.70;;;;;;;6.47;100.00;100314.73;106510;1259;59310;-51
2023/10/17 01:44:08;;;;;;;1.00;0.70;;;;;;;6.50;100.00;100318.44;106235;1256;72680;-50
2023/10/17 01:46:38;;;;;;;0.90;0.70;;;;;;;6.51;100.00;100321.61;105299;1260;67626;-51
2023/10/17 01:49:12;;;;;;;2.50;0.60;;;;;;;6.52;100.00;100323.38;105471;1256;72693;-50
2023/10/17 01:51:48;;;;;;;2.50;0.70;;;;;;;6.51;100.00;100323.75;107321;1256;60463;-50
2023/10/17 01:54:16;;;;;;;1.30;0.80;;;;;;;6.50;100.00;100326.45;105168;1256;60650;-50
2023/10/17 01:56:47;;;;;;;0.70;0.50;;;;;;;6.49;100.00;100326.46;105181;1256;73877;-50
2023/10/17 01:59:25;;;;;;;1.20;0.70;;;;;;;6.48;100.00;100330.23;105181;1260;67721;-50
2023/10/17 02:01:56;;;;;;;2.00;0.80;;;;;;;6.48;100.00;100330.05;105201;1262;71208;-48
2023/10/17 02:04:24;;;;;;;2.80;0.70;;;;;;;6.48;100.00;100335.95;108690;1256;61668;-51
2023/10/17 02:06:52;;;;;;;1.40;0.50;;;;;;;6.49;100.00;100335.56;108734;1256;60617;-51
2023/10/17 02:11:52;;;;;;;2.10;0.70;;;;;;;6.52;100.00;100342.10;108685;1257;65881;-51
2023/10/17 02:14:23;;;;;;;2.30;0.90;;;;;;;6.54;100.00;100340.64;107529;1256;73714;-50
2023/10/17 02:16:51;;;;;;;1.70;0.60;;;;;;;6.55;100.00;100337.94;105195;1257;60607;-51
2023/10/17 02:19:31;;;;;;;2.80;0.60;;;;;;;6.57;100.00;100341.08;105376;1259;60473;-51
2023/10/17 02:21:59;;;;;;;1.10;0.60;;;;;;;6.59;100.00;100341.77;105228;1259;73903;-51
2023/10/17 02:24:29;;;;;;;1.70;0.70;;;;;;;6.60;100.00;100342.81;105187;1262;66883;-50
2023/10/17 02:27:00;;;;;;;3.50;0.70;;;;;;;6.62;100.00;100347.60;107360;1256;72425;-51
2023/10/17 02:29:29;;;;;;;2.00;0.70;;;;;;;6.62;100.00;100344.90;108770;1256;60462;-52
2023/10/17 02:31:58;;;;;;;1.70;0.60;;;;;;;6.63;100.00;100346.83;105919;1259;60451;-50
2023/10/17 02:34:29;;;;;;;0.70;0.50;;;;;;;6.63;100.00;100349.15;108848;1257;73236;-51
2023/10/17 02:37:00;;;;;;;1.00;0.60;;;;;;;6.63;100.00;100355.94;108603;1255;66670;-51
2023/10/17 02:39:27;;;;;;;2.20;0.60;;;;;;;6.61;100.00;100362.05;108794;1256;71066;-51
2023/10/17 02:42:06;;;;;;;5.20;0.70;;;;;;;6.59;100.00;100363.69;105395;1256;60498;-51
2023/10/17 02:44:39;;;;;;;2.50;0.70;;;;;;;6.59;100.00;100365.13;108684;1256;60637;-52
2023/10/17 02:47:11;;;;;;;1.50;0.70;;;;;;;6.59;100.00;100366.73;108695;1256;72235;-52
2023/10/17 02:49:39;;;;;;;2.00;0.70;;;;;;;6.58;100.00;100365.13;105398;1259;67419;-52
2023/10/17 02:52:07;;;;;;;4.00;0.80;;;;;;;6.58;100.00;100367.46;105057;1262;72788;-51
2023/10/17 02:54:53;;;;;;;1.30;0.80;;;;;;;6.56;100.00;100367.85;105191;1261;63209;-49
2023/10/17 02:57:21;;;;;;;1.50;0.70;;;;;;;6.54;100.00;100370.42;108807;1256;60538;-52
2023/10/17 02:59:51;;;;;;;1.10;0.60;;;;;;;6.54;100.00;100375.95;108700;1256;73595;-51
2023/10/17 03:02:24;;;;;;;0.90;0.60;;;;;;;6.54;100.00;100374.16;108881;1257;65792;-51
2023/10/17 03:04:52;;;;;;;0.80;0.60;;;;;;;6.55;100.00;100375.38;108700;1256;71467;-53
2023/10/17 03:07:21;;;;;;;2.20;0.70;;;;;;;6.57;100.00;100374.08;108729;1255;62027;-52
2023/10/17 03:09:49;;;;;;;2.70;0.60;;;;;;;6.57;100.00;100374.23;108780;1256;58805;-51
2023/10/17 03:12:22;;;;;;;1.40;0.60;;;;;;;6.59;100.00;100371.00;108797;1257;73713;-52
2023/10/17 03:15:18;;;;;;;0.90;0.60;;;;;;;6.60;100.00;100373.66;108716;1256;69909;-52
2023/10/17 03:17:37;;;;;;;1.80;0.70;;;;;;;6.61;100.00;100383.45;108647;1256;71674;-52
2023/10/17 03:20:08;;;;;;;1.80;0.70;;;;;;;6.61;100.00;100380.42;108672;1256;62254;-52
2023/10/17 03:22:35;;;;;;;1.70;0.70;;;;;;;6.63;100.00;100386.80;108703;1257;58900;-53
2023/10/17 03:25:18;;;;;;;1.20;0.90;;;;;;;6.64;100.00;100384.09;108738;1256;73910;-50
2023/10/17 03:27:49;;;;;;;1.90;0.90;;;;;;;6.65;100.00;100392.27;108767;1255;68934;-51
2023/10/17 03:30:20;;;;;;;1.70;0.80;;;;;;;6.65;100.00;100394.77;108741;1257;72842;-52
2023/10/17 03:35:29;;;;;;;1.60;0.70;;;;;;;6.61;100.00;100402.02;108672;1256;60168;-53
2023/10/17 03:37:56;;;;;;;1.40;0.60;;;;;;;6.58;100.00;100398.65;108766;1259;73861;-52
2023/10/17 03:40:51;;;;;;;2.40;0.70;;;;;;;6.57;100.00;100407.77;108972;1256;66949;-52
2023/10/17 03:43:21;;;;;;;1.00;0.70;;;;;;;6.53;100.00;100409.66;105295;1259;72771;-51
2023/10/17 03:46:01;;;;;;;1.30;0.60;;;;;;;6.50;100.00;100410.61;108684;1256;61757;-51
2023/10/17 03:48:29;;;;;;;2.50;0.50;;;;;;;6.47;100.00;100415.84;105263;1258;60979;-51
2023/10/17 03:51:08;;;;;;;0.90;0.50;;;;;;;6.45;100.00;100418.73;105265;1256;72194;-50
2023/10/17 03:53:42;;;;;;;2.90;0.60;;;;;;;6.42;100.00;100421.84;104630;1256;67512;-52
2023/10/17 03:56:19;;;;;;;1.50;0.50;;;;;;;6.37;100.00;100420.86;106009;1256;73359;-51
2023/10/17 03:58:59;;;;;;;2.00;0.40;;;;;;;6.33;100.00;100420.41;106871;1258;60566;-52
2023/10/17 04:01:27;;;;;;;2.00;0.60;;;;;;;6.28;100.00;100420.70;104843;1262;62047;-52
2023/10/17 04:03:55;;;;;;;0.70;0.40;;;;;;;6.23;100.00;100424.88;104745;1257;73951;-51
2023/10/17 04:06:38;;;;;;;1.10;0.60;;;;;;;6.19;100.00;100425.70;108794;1256;66536;-52
2023/10/17 04:09:17;;;;;;;0.60;0.50;;;;;;;6.14;100.00;100431.30;105162;1259;71407;-51
2023/10/17 04:11:46;;;;;;;0.70;0.50;;;;;;;6.12;100.00;100435.10;105068;1261;60572;-51
2023/10/17 04:14:13;;;;;;;1.50;0.60;;;;;;;6.09;100.00;100434.08;108812;1256;58346;-52
2023/10/17 04:16:44;;;;;;;4.00;0.60;;;;;;;6.07;100.00;100440.54;107687;1257;74760;-52
2023/10/17 04:19:17;;;;;;;0.70;0.60;;;;;;;6.05;100.00;100445.91;106275;1262;65437;-51
2023/10/17 04:21:51;;;;;;;1.40;0.50;;;;;;;6.03;100.00;100447.37;105421;1257;72692;-52
2023/10/17 04:24:35;;;;;;;2.20;0.70;;;;;;;6.03;100.00;100457.20;105215;1256;61918;-50
2023/10/17 04:27:23;;;;;;;1.20;0.60;;;;;;;6.00;100.00;100460.45;108771;1255;59364;-51
2023/10/17 04:29:50;;;;;;;1.20;0.70;;;;;;;5.98;100.00;100468.66;105329;1262;73798;-50
2023/10/17 04:32:19;;;;;;;1.70;0.60;;;;;;;5.98;100.00;100469.74;105084;1261;65939;-50
2023/10/17 04:34:48;;;;;;;1.80;0.70;;;;;;;5.98;100.00;100474.38;106526;1256;72665;-51
2023/10/17 04:37:31;;;;;;;1.40;0.70;;;;;;;5.98;100.00;100477.40;105008;1257;60469;-51
2023/10/17 04:45:20;;;;;;;3.80;0.70;;;;;;;5.96;100.00;100496.33;104669;1259;65813;-51
2023/10/17 04:47:53;;;;;;;2.20;0.70;;;;;;;5.94;100.00;100500.48;107789;1257;72979;-51
2023/10/17 04:50:22;;;;;;;1.60;0.70;;;;;;;5.93;100.00;100506.71;105931;1260;60610;-52
2023/10/17 04:52:49;;;;;;;3.20;0.80;;;;;;;5.93;100.00;100505.83;105487;1257;60543;-49
2023/10/17 04:55:18;;;;;;;2.50;0.70;;;;;;;5.93;100.00;100506.36;108927;1256;73542;-51
2023/10/17 04:57:59;;;;;;;2.20;1.10;;;;;;;5.93;100.00;100508.32;106278;1260;66944;-51
2023/10/17 05:03:14;;;;;;;1.30;1.00;;;;;;;5.91;100.00;100512.45;106868;1256;60603;-51
2023/10/17 05:06:00;;;;;;;1.80;0.80;;;;;;;5.91;100.00;100516.36;105487;1262;60536;-50
2023/10/17 05:08:49;;;;;;;2.40;0.80;;;;;;;5.90;100.00;100521.54;105867;1256;74519;-51
2023/10/17 06:17:48;;;;;;;1.50;0.80;;;;;;;6.57;100.00;100586.83;108719;1256;73111;-51
2023/10/17 06:26:07;;;;;;;1.70;0.80;;;;;;;6.79;100.00;100591.58;108536;1260;60102;-52
2023/10/17 06:28:34;;;;;;;1.80;0.70;;;;;;;6.84;100.00;100589.87;108698;1257;58844;-52
2023/10/17 06:36:24;;;;;;;3.10;0.80;;;;;;;6.97;100.00;100625.31;102463;1292;601133;-51
2023/10/17 06:38:53;;;;;;;1.70;0.70;;;;;;;6.99;100.00;100624.89;108163;1267;59819;-52
2023/10/17 06:41:39;;;;;;;1.90;0.80;;;;;;;7.02;100.00;100626.27;108143;1272;60093;-53
2023/10/17 06:44:09;;;;;;;2.20;0.60;;;;;;;7.07;100.00;100626.88;108165;1267;72360;-53
2023/10/17 06:46:55;;;;;;;2.60;0.60;;;;;;;7.11;100.00;100626.07;108409;1260;66744;-52
2023/10/17 06:53:02;;;;;;;1.70;0.50;;;;;;;7.13;100.00;100628.91;105029;1257;60049;-50
2023/10/17 06:55:01;;;;;;;1.20;0.60;;;;;;;7.14;100.00;100630.66;104603;1263;59344;-49
2023/10/17 06:57:33;;;;;;;2.80;0.90;;;;;;;7.15;100.00;100627.78;105459;1257;74101;-51
2023/10/17 07:00:16;;;;;;;0.70;0.50;;;;;;;7.18;100.00;100628.79;107663;1258;67589;-51
2023/10/17 07:02:48;;;;;;;2.30;0.40;;;;;;;7.25;100.00;100632.21;104555;1257;71449;-49
2023/10/17 07:05:21;;;;;;;2.50;0.40;;;;;;;7.33;100.00;100627.42;108146;1257;60900;-52
2023/10/17 07:07:54;;;;;;;0.80;0.50;;;;;;;7.41;100.00;100631.16;104609;1262;59670;-52
2023/10/17 07:13:31;;;;;;;1.30;0.40;;;;;;;7.54;100.00;100634.98;104625;1257;67520;-51
2023/10/17 07:16:11;;;;;;;0.40;0.20;;;;;;;7.61;100.00;100639.47;104479;1257;72418;-49
2023/10/17 07:18:43;;;;;;;0.60;0.40;;;;;;;7.66;100.00;100641.16;105187;1262;59771;-50
2023/10/17 07:23:45;;;;;;;3.30;0.50;;;;;;;7.70;100.00;100649.65;108709;1257;71884;-51
2023/10/17 07:28:52;;;;;;;1.30;0.40;;;;;;;7.57;100.00;100646.88;105202;1263;72831;-49
2023/10/17 07:31:22;;;;;;;2.00;0.50;;;;;;;7.49;100.00;100650.81;105297;1258;60263;-51
2023/10/17 07:34:06;;;;;;;2.40;0.60;;;;;;;7.41;100.00;100652.23;107350;1260;59408;-51
2023/10/17 07:36:34;;;;;;;0.60;0.40;;;;;;;7.37;100.00;100661.43;105273;1262;73872;-52
2023/10/17 07:39:24;;;;;;;0.60;0.40;;;;;;;7.37;100.00;100668.76;105131;1257;67269;-50
2023/10/17 07:41:53;;;;;;;1.00;0.50;;;;;;;7.37;100.00;100669.46;105202;1262;73021;-50
2023/10/17 07:44:22;;;;;;;1.60;0.40;;;;;;;7.38;100.00;100671.23;105526;1257;60942;-50
2023/10/17 07:49:35;;;;;;;1.20;0.40;;;;;;;7.41;100.00;100670.09;104815;1262;73129;-51
2023/10/17 07:52:10;;;;;;;0.90;0.40;;;;;;;7.45;100.00;100669.48;104723;1263;67661;-50
2023/10/17 07:54:58;;;;;;;;;;;;;;;7.52;100.00;100675.40;105263;1261;71945;-48
2023/10/17 07:57:26;;;;;;;0.80;0.50;;;;;;;7.60;100.00;100673.79;105511;1260;59772;-50
2023/10/17 07:59:59;;;;;;;1.30;0.40;;;;;;;7.65;100.00;100673.16;105563;1257;59870;-50
2023/10/17 08:02:30;;;;;;;0.90;0.40;;;;;;;7.68;100.00;100675.93;107654;1258;73081;-50
2023/10/17 08:05:16;;;;;;;4.00;0.40;;;;;;;7.70;100.00;100676.43;105195;1257;67186;-51
2023/10/17 08:07:49;;;;;;;1.30;0.50;;;;;;;7.71;100.00;100677.85;105177;1258;72718;-50
2023/10/17 08:10:29;;;;;;;0.60;0.30;;;;;;;7.68;100.00;100680.77;105164;1259;59663;-50
2023/10/17 08:12:57;;;;;;;1.40;0.40;;;;;;;7.63;100.00;100683.38;105145;1263;59600;-50
2023/10/17 08:15:30;;;;;;;0.70;0.40;;;;;;;7.61;100.00;100683.95;105276;1262;72543;-50
2023/10/17 08:17:58;;;;;;;0.90;0.40;;;;;;;7.55;100.00;100686.58;105403;1257;66031;-51
2023/10/17 08:23:12;;;;;;;1.40;0.50;;;;;;;7.56;100.00;100683.71;104943;1265;59896;-51
2023/10/17 08:25:56;;;;;;;1.40;0.40;;;;;;;7.58;100.00;100691.52;105115;1262;59590;-51
2023/10/17 08:29:08;;;;;;;4.00;0.40;;;;;;;7.58;100.00;100690.79;104917;1257;73192;-51
2023/10/17 08:31:26;;;;;;;1.00;0.40;;;;;;;7.56;100.00;100689.96;104929;1257;65677;-51
2023/10/17 08:42:49;;;;;;;1.40;0.50;;;;;;;7.68;100.00;100688.09;104923;1263;73227;-51
2023/10/17 08:44:50;;;;;;;0.90;0.40;;;;;;;7.78;100.00;100685.52;106069;1256;65793;-51
2023/10/17 08:47:18;;;;;;;0.80;0.40;;;;;;;7.86;100.00;100685.00;106062;1259;71514;-51
2023/10/17 08:49:49;;;;;;;0.50;0.40;;;;;;;7.92;100.00;100687.72;108732;1257;57869;-53
2023/10/17 08:52:24;;;;;;;5.20;0.40;;;;;;;7.93;100.00;100687.87;108138;1259;60638;-50
2023/10/17 08:54:52;;;;;;;1.00;0.40;;;;;;;7.94;100.00;100679.45;105094;1262;72163;-51
2023/10/17 08:57:20;;;;;;;0.90;0.50;;;;;;;8.01;100.00;100679.84;104408;1262;66021;-50
2023/10/17 09:05:01;;;;;;;1.10;0.40;;;;;;;8.23;100.00;100680.57;108687;1256;58820;-52
2023/10/17 09:07:32;;;;;;;2.60;0.40;;;;;;;8.33;100.00;100676.77;108814;1256;71856;-52
2023/10/17 09:10:07;;;;;;;3.20;0.50;;;;;;;8.39;100.00;100677.89;108755;1257;66590;-51
2023/10/17 09:12:42;;;;;;;0.90;0.50;;;;;;;8.45;100.00;100680.06;108778;1262;72731;-52
2023/10/17 09:15:27;;;;;;;1.50;0.70;;;;;;;8.49;100.00;100680.86;108764;1260;58337;-51
2023/10/17 09:18:07;;;;;;;1.60;0.50;;;;;;;8.52;100.00;100682.55;108698;1256;58810;-52
2023/10/17 09:20:36;;;;;;;0.80;0.40;;;;;;;8.50;100.00;100682.63;108724;1257;71889;-52
2023/10/17 09:23:04;;;;;;;1.00;0.40;;;;;;;8.52;100.00;100679.52;108719;1257;66765;-53
2023/10/17 09:25:31;;;;;;;0.80;0.40;;;;;;;8.51;100.00;100679.02;108661;1257;72746;-53
2023/10/17 09:27:59;;;;;;;1.10;0.40;;;;;;;8.49;100.00;100674.42;108713;1257;59306;-52
2023/10/17 09:30:26;;;;;;;2.40;0.40;;;;;;;8.52;100.00;100676.12;108713;1257;59613;-52
2023/10/17 09:32:55;;;;;;;1.20;0.40;;;;;;;8.58;100.00;100675.25;108838;1257;73125;-53
2023/10/17 09:35:22;;;;;;;3.00;0.50;;;;;;;8.64;100.00;100671.71;108745;1257;68002;-53
2023/10/17 09:37:50;;;;;;;0.90;0.50;;;;;;;8.69;100.00;100672.27;108778;1257;72747;-52
2023/10/17 09:40:27;;;;;;;0.80;0.30;;;;;;;8.75;100.00;100668.22;108776;1256;58026;-53
2023/10/17 09:42:55;;;;;;;0.40;0.40;;;;;;;8.79;100.00;100666.13;108705;1256;63591;-51
2023/10/17 09:45:22;;;;;;;1.10;0.40;;;;;;;8.83;100.00;100668.52;108643;1262;72961;-52
2023/10/17 09:48:04;;;;;;;1.00;0.40;;;;;;;8.86;100.00;100660.21;108750;1262;65694;-52
2023/10/17 09:50:34;;;;;;;0.70;0.40;;;;;;;8.84;100.00;100653.83;108648;1257;72069;-52
2023/10/17 09:53:13;;;;;;;0.60;0.40;;;;;;;8.88;100.00;100653.88;107387;1257;59545;-51
2023/10/17 09:55:47;;;;;;;1.50;0.50;;;;;;;8.97;100.00;100651.50;105079;1263;59644;-50
2023/10/17 09:58:17;;;;;;;;;;;;;;;9.03;100.00;100650.06;108371;1262;73103;-51
2023/10/17 10:00:52;;;;;;;1.00;0.50;;;;;;;9.12;100.00;100643.73;105286;1264;64676;-51
2023/10/17 10:03:20;;;;;;;1.60;0.50;;;;;;;9.21;100.00;100644.38;105658;1260;73142;-51
2023/10/17 10:05:48;;;;;;;1.10;0.40;;;;;;;9.27;100.00;100643.66;108194;1264;60317;-52
2023/10/17 10:08:32;;;;;;;1.60;0.40;;;;;;;9.31;100.00;100640.14;104815;1265;60644;-51
2023/10/17 10:11:01;;;;;;;0.70;0.40;;;;;;;9.34;100.00;100641.13;105136;1262;71851;-51
2023/10/17 10:13:31;;;;;;;0.70;0.40;;;;;;;9.37;100.00;100638.16;105374;1257;66389;-51
2023/10/17 10:15:59;;;;;;;0.70;0.40;;;;;;;9.40;100.00;100639.52;108739;1257;72618;-52
2023/10/17 10:18:36;;;;;;;0.50;0.30;;;;;;;9.39;100.00;100635.58;108659;1257;58694;-52
2023/10/17 10:21:04;;;;;;;0.60;0.50;;;;;;;9.38;100.00;100637.60;108663;1257;60441;-52
2023/10/17 10:23:41;;;;;;;0.80;0.40;;;;;;;9.39;100.00;100640.08;105047;1257;73110;-51
2023/10/17 10:26:11;;;;;;;0.50;0.30;;;;;;;9.42;100.00;100644.30;108656;1262;67043;-52
2023/10/17 10:28:38;;;;;;;0.60;0.30;;;;;;;9.43;100.00;100641.59;108777;1257;71405;-52
2023/10/17 10:31:29;;;;;;;0.60;0.40;;;;;;;9.42;100.00;100638.74;104891;1256;60277;-52
2023/10/17 10:33:58;;;;;;;0.80;0.40;;;;;;;9.39;100.00;100636.31;104925;1257;59751;-51
2023/10/17 10:36:26;;;;;;;0.60;0.30;;;;;;;9.41;100.00;100633.41;108224;1262;73141;-51
2023/10/17 10:38:54;;;;;;;0.50;0.30;;;;;;;9.45;100.00;100637.55;105317;1262;65738;-51
2023/10/17 10:41:25;;;;;;;1.20;0.30;;;;;;;9.49;100.00;100636.02;105144;1262;72783;-52
2023/10/17 10:43:59;;;;;;;0.90;0.40;;;;;;;9.53;100.00;100641.12;105058;1260;60241;-50
2023/10/17 10:46:28;;;;;;;0.70;0.40;;;;;;;9.55;100.00;100636.56;105014;1263;59756;-50
2023/10/17 10:48:56;;;;;;;1.00;0.40;;;;;;;9.56;100.00;100634.00;106550;1258;73069;-52
2023/10/17 10:51:24;;;;;;;0.40;0.30;;;;;;;9.61;100.00;100638.71;106330;1258;65786;-50
2023/10/17 10:53:58;;;;;;;1.20;0.30;;;;;;;9.59;100.00;100639.67;105137;1257;71727;-51
2023/10/17 10:56:26;;;;;;;0.40;0.30;;;;;;;9.53;100.00;100639.84;105252;1263;60932;-51
2023/10/17 10:58:57;;;;;;;0.40;0.30;;;;;;;9.47;100.00;100642.16;105102;1263;61234;-52
2023/10/17 11:01:25;;;;;;;1.10;0.30;;;;;;;9.45;100.00;100641.86;105212;1266;73959;-51
2023/10/17 11:03:53;;;;;;;0.60;0.30;;;;;;;9.43;100.00;100643.01;107402;1258;67528;-51
2023/10/17 11:06:25;;;;;;;2.20;0.30;;;;;;;9.45;100.00;100644.54;105153;1264;71487;-50
2023/10/17 11:08:54;;;;;;;2.10;0.30;;;;;;;9.45;100.00;100643.83;106987;1262;60579;-51
2023/10/17 11:11:22;;;;;;;1.50;0.30;;;;;;;9.45;100.00;100639.34;108632;1257;61231;-50
2023/10/17 11:13:51;;;;;;;1.60;0.20;;;;;;;9.45;100.00;100636.84;108004;1262;72660;-51
2023/10/17 11:16:21;;;;;;;0.90;0.30;;;;;;;9.46;100.00;100637.36;105139;1262;65680;-51
2023/10/17 11:18:49;;;;;;;2.10;0.30;;;;;;;9.45;100.00;100633.25;104926;1260;72977;-51
2023/10/17 11:21:21;;;;;;;0.90;0.20;;;;;;;9.44;100.00;100628.66;108639;1262;58885;-51
2023/10/17 11:23:51;;;;;;;0.40;0.20;;;;;;;9.45;100.00;100625.01;106234;1262;60560;-51
2023/10/17 11:26:21;;;;;;;1.30;0.30;;;;;;;9.49;100.00;100630.66;105092;1257;71712;-50
2023/10/17 11:28:56;;;;;;;0.40;0.20;;;;;;;9.53;100.00;100633.39;105265;1257;67296;-50
2023/10/17 11:31:24;;;;;;;1.40;0.20;;;;;;;9.58;100.00;100628.77;105463;1257;71988;-51
2023/10/17 11:34:12;;;;;;;0.40;0.30;;;;;;;9.63;100.00;100629.67;106578;1263;60367;-51
2023/10/17 11:36:45;;;;;;;0.40;0.20;;;;;;;9.65;100.00;100631.23;105533;1257;60479;-50
2023/10/17 11:39:15;;;;;;;1.40;0.20;;;;;;;9.69;100.00;100631.28;108609;1257;73925;-52
2023/10/17 11:41:53;;;;;;;0.40;0.20;;;;;;;9.74;100.00;100633.11;108674;1257;66919;-52
2023/10/17 11:44:24;;;;;;;0.30;0.20;;;;;;;9.76;100.00;100639.68;105884;1263;71517;-50
2023/10/17 11:47:02;;;;;;;0.90;0.20;;;;;;;9.70;100.00;100635.56;105019;1263;60827;-51
2023/10/17 11:49:31;;;;;;;0.40;0.20;;;;;;;9.59;100.00;100638.75;106291;1258;60457;-52
2023/10/17 11:52:04;;;;;;;0.30;0.20;;;;;;;9.49;100.00;100638.89;105372;1262;73730;-51
2023/10/17 11:54:32;;;;;;;0.80;0.20;;;;;;;9.38;100.00;100637.77;105798;1257;66841;-50
2023/10/17 11:57:12;;;;;;;0.30;0.20;;;;;;;9.30;100.00;100642.48;105027;1257;72612;-49
2023/10/17 12:02:49;;;;;;;0.60;0.10;;;;;;;9.22;100.00;100641.13;108782;1257;58825;-51
2023/10/17 12:05:27;;;;;;;0.30;0.20;;;;;;;9.18;100.00;100638.90;108711;1256;74049;-51
2023/10/17 12:07:57;;;;;;;0.60;0.20;;;;;;;9.17;100.00;100639.84;108658;1256;65811;-52
2023/10/17 12:10:25;;;;;;;0.30;0.20;;;;;;;9.17;100.00;100647.55;108748;1256;72440;-51
2023/10/17 12:12:58;;;;;;;0.20;0.10;;;;;;;9.17;100.00;100643.79;108767;1257;58868;-52
2023/10/17 12:15:26;;;;;;;0.30;0.20;;;;;;;9.18;100.00;100641.95;108746;1257;58891;-52
2023/10/17 12:17:54;;;;;;;0.20;0.10;;;;;;;9.19;100.00;100638.86;108713;1258;72632;-51
2023/10/17 12:20:27;;;;;;;0.60;0.20;;;;;;;9.19;100.00;100638.88;108724;1257;65646;-51
2023/10/17 12:22:59;;;;;;;0.60;0.20;;;;;;;9.20;100.00;100636.15;108830;1261;73130;-52
2023/10/17 12:25:27;;;;;;;1.20;0.20;;;;;;;9.23;100.00;100627.31;107710;1262;60600;-50
2023/10/17 12:27:56;;;;;;;0.70;0.20;;;;;;;9.27;100.00;100625.38;108604;1257;59111;-52
2023/10/17 12:30:27;;;;;;;0.20;0.10;;;;;;;9.33;100.00;100623.45;108954;1255;72812;-52
2023/10/17 12:32:55;;;;;;;0.20;0.10;;;;;;;9.40;100.00;100623.75;108923;1254;65808;-51
2023/10/17 12:35:23;;;;;;;0.50;0.20;;;;;;;9.46;100.00;100619.42;109023;1257;72802;-51
2023/10/17 12:37:51;;;;;;;0.40;0.10;;;;;;;9.51;100.00;100620.20;108919;1259;58954;-51
2023/10/17 12:40:18;;;;;;;1.10;0.20;;;;;;;9.55;100.00;100621.30;109080;1258;59142;-52
2023/10/17 12:42:46;;;;;;;0.20;0.20;;;;;;;9.61;100.00;100621.15;108964;1253;73763;-52
2023/10/17 12:45:20;;;;;;;0.50;0.10;;;;;;;9.66;100.00;100630.84;108965;1254;65650;-52
2023/10/17 12:47:48;;;;;;;0.50;0.10;;;;;;;9.70;100.00;100632.33;108941;1254;73355;-52
2023/10/17 12:50:18;;;;;;;0.40;0.10;;;;;;;9.72;100.00;100638.17;106962;1258;60559;-51
2023/10/17 12:52:46;;;;;;;0.50;0.10;;;;;;;9.70;100.00;100633.02;108904;1255;58829;-52
2023/10/17 12:55:13;;;;;;;1.10;0.10;;;;;;;9.68;100.00;100632.59;109116;1259;74286;-52
2023/10/17 12:57:41;;;;;;;1.00;0.10;;;;;;;9.66;100.00;100630.50;108899;1259;66433;-52
2023/10/17 13:00:09;;;;;;;0.40;0.10;;;;;;;9.65;100.00;100635.35;106798;1258;72733;-50
2023/10/17 13:02:38;;;;;;;0.40;0.20;;;;;;;9.66;100.00;100639.63;105225;1263;60551;-48
2023/10/17 13:05:09;;;;;;;0.30;0.10;;;;;;;9.64;100.00;100637.52;108904;1254;60115;-52
2023/10/17 13:07:38;;;;;;;0.40;0.10;;;;;;;9.61;100.00;100642.65;105877;1258;72727;-50
2023/10/17 13:10:07;;;;;;;0.80;0.20;;;;;;;9.60;100.00;100638.77;104820;1262;68015;-51
2023/10/17 13:12:35;;;;;;;1.00;0.30;;;;;;;9.59;100.00;100639.67;105940;1263;73587;-50
2023/10/17 13:15:08;;;;;;;0.50;0.20;;;;;;;9.58;100.00;100638.61;107906;1254;60407;-50
2023/10/17 13:17:35;;;;;;;0.40;0.20;;;;;;;9.60;100.00;100636.60;108977;1259;60852;-52
2023/10/17 13:20:07;;;;;;;0.10;0.10;;;;;;;9.59;100.00;100636.27;105449;1254;75878;-51
2023/10/17 13:22:42;;;;;;;0.30;0.10;;;;;;;9.57;100.00;100633.80;105791;1259;67832;-51
2023/10/17 13:25:10;;;;;;;0.80;0.20;;;;;;;9.57;100.00;100635.07;105856;1260;72870;-50
2023/10/17 13:27:37;;;;;;;0.30;0.20;;;;;;;9.59;100.00;100638.25;105331;1255;60654;-50
2023/10/17 13:30:06;;;;;;;0.80;0.20;;;;;;;9.61;100.00;100638.00;105650;1259;60443;-51
2023/10/17 13:32:34;;;;;;;0.50;0.20;;;;;;;9.63;100.00;100638.45;105549;1260;73068;-51
2023/10/17 13:35:01;;;;;;;0.60;0.10;;;;;;;9.66;100.00;100639.64;106423;1254;66407;-51
2023/10/17 13:37:29;;;;;;;0.40;0.20;;;;;;;9.69;100.00;100637.03;105246;1262;73192;-51
2023/10/17 13:39:56;;;;;;;1.20;0.20;;;;;;;9.71;100.00;100638.75;105417;1259;60400;-51
2023/10/17 13:42:25;;;;;;;1.40;0.20;;;;;;;9.71;100.00;100637.13;105372;1254;60467;-51
2023/10/17 13:44:53;;;;;;;1.30;0.20;;;;;;;9.71;100.00;100635.52;105597;1254;72655;-51
2023/10/17 13:47:21;;;;;;;0.80;0.30;;;;;;;9.72;100.00;100640.14;104916;1258;65799;-50